createdAt,value
2017-11-24T00:00:07.855Z,7.1
2017-11-24T00:10:22.679Z,7.1
2017-11-24T00:20:40.871Z,7.1
2017-11-24T00:31:09.445Z,7.1
2017-11-24T00:41:22.741Z,7.0
2017-11-24T00:51:37.912Z,6.9
2017-11-24T01:02:30.007Z,6.9
2017-11-24T01:13:16.334Z,6.8
2017-11-24T01:24:05.016Z,6.7
2017-11-24T01:34:19.204Z,6.7
2017-11-24T01:44:43.897Z,6.6
2017-11-24T01:55:29.424Z,6.5
2017-11-24T02:06:16.938Z,6.4
2017-11-24T02:17:07.092Z,6.4
2017-11-24T02:27:54.124Z,6.4
2017-11-24T02:38:09.479Z,6.4
2017-11-24T02:48:55.993Z,6.5
2017-11-24T02:59:10.558Z,6.5
2017-11-24T03:09:56.080Z,6.6
2017-11-24T03:20:13.325Z,6.6
2017-11-24T03:30:28.962Z,6.7
2017-11-24T03:40:45.943Z,6.7
2017-11-24T03:51:00.465Z,6.8
2017-11-24T04:01:14.729Z,6.9
2017-11-24T04:11:39.994Z,7.0
2017-11-24T04:22:00.681Z,7.1
2017-11-24T04:32:49.037Z,7.2
2017-11-24T04:43:07.053Z,7.2
2017-11-24T04:53:22.956Z,7.2
2017-11-24T05:03:41.734Z,7.3
2017-11-24T05:13:56.221Z,7.3
2017-11-24T05:24:45.757Z,7.3
2017-11-24T05:35:05.397Z,7.3
2017-11-24T05:45:24.205Z,7.3
2017-11-24T05:55:38.647Z,7.3
2017-11-24T06:05:57.947Z,7.3
2017-11-24T06:16:45.198Z,7.4
2017-11-24T06:27:00.471Z,7.3
2017-11-24T06:37:45.323Z,7.4
2017-11-24T06:48:02.034Z,7.4
2017-11-24T06:58:22.050Z,7.3
2017-11-24T07:08:36.514Z,7.3
2017-11-24T07:18:48.477Z,7.2
2017-11-24T07:29:19.227Z,7.2
2017-11-24T07:39:34.132Z,7.2
2017-11-24T07:50:10.568Z,7.1
2017-11-24T08:00:27.213Z,7.1
2017-11-24T08:11:25.836Z,7.1
2017-11-24T08:21:50.532Z,7.2
2017-11-24T08:32:38.934Z,7.3
2017-11-24T08:43:07.441Z,7.3
2017-11-24T08:53:25.430Z,7.4
2017-11-24T09:03:44.961Z,7.5
2017-11-24T09:14:31.033Z,7.8
2017-11-24T09:24:44.730Z,7.8
2017-11-24T09:36:07.669Z,7.8
2017-11-24T09:46:27.486Z,7.8
2017-11-24T09:56:56.225Z,7.9
2017-11-24T10:07:11.759Z,7.9
2017-11-24T10:17:28.093Z,8.0
2017-11-24T10:27:41.469Z,8.0
2017-11-24T10:37:52.618Z,8.0
2017-11-24T10:48:06.799Z,8.1
2017-11-24T10:58:30.614Z,8.3
2017-11-24T11:08:47.424Z,8.5
2017-11-24T11:19:11.771Z,8.6
2017-11-24T11:29:24.808Z,8.7
2017-11-24T11:40:08.395Z,8.7
2017-11-24T11:50:22.460Z,8.7
2017-11-24T12:01:45.950Z,8.6
2017-11-24T12:12:04.536Z,8.6
2017-11-24T12:22:18.932Z,8.6
2017-11-24T12:32:30.661Z,8.8
2017-11-24T12:42:47.117Z,9.3
2017-11-24T12:53:00.987Z,10.0
2017-11-24T13:03:46.953Z,10.6
2017-11-24T13:14:34.339Z,10.8
2017-11-24T13:25:19.429Z,10.9
2017-11-24T13:35:31.397Z,10.9
2017-11-24T13:45:43.192Z,10.8
2017-11-24T13:55:57.492Z,10.7
2017-11-24T14:06:14.452Z,10.5
2017-11-24T14:16:30.552Z,10.3
2017-11-24T14:26:45.765Z,10.1
2017-11-24T14:37:00.848Z,10.0
2017-11-24T14:47:46.122Z,10.2
2017-11-24T14:57:57.032Z,10.2
2017-11-24T15:08:46.021Z,10.1
2017-11-24T15:18:59.514Z,9.9
2017-11-24T15:29:25.914Z,9.8
2017-11-24T15:39:47.526Z,9.5
2017-11-24T15:50:08.213Z,9.2
2017-11-24T16:00:28.266Z,8.9
2017-11-24T16:10:41.981Z,8.6
2017-11-24T16:20:55.291Z,8.3
2017-11-24T16:31:06.580Z,8.0
2017-11-24T16:41:54.533Z,7.4
2017-11-24T16:52:39.489Z,7.1
2017-11-24T17:03:59.636Z,6.9
2017-11-24T17:14:13.333Z,6.9
2017-11-24T17:24:30.297Z,6.6
2017-11-24T17:34:43.928Z,6.4
2017-11-24T17:44:57.231Z,6.2
2017-11-24T17:55:53.549Z,6.0
2017-11-24T18:06:38.129Z,5.6
2017-11-24T18:16:50.934Z,5.6
2017-11-24T18:27:05.612Z,5.4
2017-11-24T18:37:50.500Z,5.0
2017-11-24T18:48:38.248Z,4.8
2017-11-24T18:59:23.559Z,4.7
2017-11-24T19:10:26.967Z,4.6
2017-11-24T19:21:30.561Z,4.5
2017-11-24T19:31:51.684Z,4.5
2017-11-24T19:42:11.439Z,4.4
2017-11-24T19:53:03.126Z,4.4
2017-11-24T20:03:24.631Z,4.4
2017-11-24T20:14:16.053Z,4.4
2017-11-24T20:25:04.176Z,4.4
2017-11-24T20:35:23.339Z,4.4
2017-11-24T20:46:18.021Z,4.5
2017-11-24T20:57:04.364Z,4.5
2017-11-24T21:07:22.695Z,4.5
2017-11-24T21:17:38.162Z,4.6
2017-11-24T21:28:03.860Z,4.6
2017-11-24T21:38:21.268Z,4.6
2017-11-24T21:48:40.658Z,4.6
2017-11-24T21:58:57.002Z,4.6
2017-11-24T22:09:12.380Z,4.6
2017-11-24T22:20:09.731Z,4.7
2017-11-24T22:30:24.552Z,4.6
2017-11-24T22:41:21.392Z,4.7
2017-11-24T22:51:39.699Z,4.7
2017-11-24T23:01:53.532Z,4.7
2017-11-24T23:12:06.117Z,4.7
2017-11-24T23:22:55.732Z,4.7
2017-11-24T23:33:11.185Z,4.7
2017-11-24T23:43:38.686Z,4.7
2017-11-24T23:53:53.591Z,4.7
